sensor_id;sensor_type;location;lat;lon;timestamp;P1;durP1;ratioP1;P2;durP2;ratioP2
68108;SDS011;54893;49.864;19.084;2022-07-29T00:02:02;12.77;;;7.30;;
68108;SDS011;54893;49.864;19.084;2022-07-29T00:07:03;12.60;;;6.73;;
68108;SDS011;54893;49.864;19.084;2022-07-29T00:12:04;11.97;;;6.70;;
68108;SDS011;54893;49.864;19.084;2022-07-29T00:17:05;10.95;;;6.38;;
68108;SDS011;54893;49.864;19.084;2022-07-29T00:22:05;11.37;;;6.63;;
68108;SDS011;54893;49.864;19.084;2022-07-29T00:27:05;11.33;;;7.30;;
68108;SDS011;54893;49.864;19.084;2022-07-29T00:32:06;14.07;;;8.40;;
68108;SDS011;54893;49.864;19.084;2022-07-29T00:37:06;14.80;;;8.03;;
68108;SDS011;54893;49.864;19.084;2022-07-29T00:42:07;25.47;;;9.70;;
68108;SDS011;54893;49.864;19.084;2022-07-29T00:47:08;14.17;;;8.67;;
68108;SDS011;54893;49.864;19.084;2022-07-29T00:52:11;13.43;;;8.85;;
68108;SDS011;54893;49.864;19.084;2022-07-29T00:57:12;15.27;;;9.25;;
68108;SDS011;54893;49.864;19.084;2022-07-29T01:02:13;15.20;;;9.57;;
68108;SDS011;54893;49.864;19.084;2022-07-29T01:07:13;14.87;;;9.13;;
68108;SDS011;54893;49.864;19.084;2022-07-29T01:12:15;14.97;;;8.93;;
68108;SDS011;54893;49.864;19.084;2022-07-29T01:17:19;14.85;;;9.18;;
68108;SDS011;54893;49.864;19.084;2022-07-29T01:33:17;16.45;;;9.30;;
68108;SDS011;54893;49.864;19.084;2022-07-29T01:38:39;16.93;;;9.60;;
68108;SDS011;54893;49.864;19.084;2022-07-29T01:43:52;17.20;;;10.32;;
68108;SDS011;54893;49.864;19.084;2022-07-29T01:49:15;20.85;;;9.73;;
68108;SDS011;54893;49.864;19.084;2022-07-29T01:54:30;15.95;;;9.50;;
68108;SDS011;54893;49.864;19.084;2022-07-29T01:59:35;14.88;;;9.65;;
68108;SDS011;54893;49.864;19.084;2022-07-29T02:04:37;16.57;;;9.87;;
68108;SDS011;54893;49.864;19.084;2022-07-29T02:09:40;15.63;;;10.10;;
68108;SDS011;54893;49.864;19.084;2022-07-29T02:14:43;16.10;;;9.85;;
68108;SDS011;54893;49.864;19.084;2022-07-29T02:19:47;20.60;;;10.35;;
68108;SDS011;54893;49.864;19.084;2022-07-29T02:24:49;16.98;;;9.73;;
68108;SDS011;54893;49.864;19.084;2022-07-29T02:29:51;17.07;;;10.47;;
68108;SDS011;54893;49.864;19.084;2022-07-29T02:34:53;17.60;;;9.73;;
68108;SDS011;54893;49.864;19.084;2022-07-29T02:39:55;17.98;;;9.98;;
68108;SDS011;54893;49.864;19.084;2022-07-29T02:44:57;17.38;;;9.23;;
68108;SDS011;54893;49.864;19.084;2022-07-29T02:50:02;15.40;;;9.90;;
68108;SDS011;54893;49.864;19.084;2022-07-29T03:00:50;15.23;;;10.37;;
68108;SDS011;54893;49.864;19.084;2022-07-29T03:05:54;16.67;;;10.07;;
68108;SDS011;54893;49.864;19.084;2022-07-29T03:10:56;17.23;;;9.55;;
68108;SDS011;54893;49.864;19.084;2022-07-29T03:15:57;17.30;;;10.17;;
68108;SDS011;54893;49.864;19.084;2022-07-29T03:20:58;18.70;;;10.50;;
68108;SDS011;54893;49.864;19.084;2022-07-29T03:25:59;18.10;;;10.30;;
68108;SDS011;54893;49.864;19.084;2022-07-29T03:31:00;19.57;;;10.67;;
68108;SDS011;54893;49.864;19.084;2022-07-29T03:36:00;17.57;;;10.57;;
68108;SDS011;54893;49.864;19.084;2022-07-29T03:41:05;17.80;;;10.88;;
68108;SDS011;54893;49.864;19.084;2022-07-29T03:46:09;17.20;;;11.03;;
68108;SDS011;54893;49.864;19.084;2022-07-29T03:51:11;17.75;;;10.65;;
68108;SDS011;54893;49.864;19.084;2022-07-29T03:56:12;20.00;;;10.77;;
68108;SDS011;54893;49.864;19.084;2022-07-29T04:01:16;20.13;;;11.07;;
68108;SDS011;54893;49.864;19.084;2022-07-29T04:06:17;18.02;;;10.40;;
68108;SDS011;54893;49.864;19.084;2022-07-29T04:11:18;18.10;;;10.33;;
68108;SDS011;54893;49.864;19.084;2022-07-29T04:16:18;16.80;;;9.60;;
68108;SDS011;54893;49.864;19.084;2022-07-29T04:21:19;20.47;;;10.07;;
68108;SDS011;54893;49.864;19.084;2022-07-29T04:26:19;16.10;;;9.17;;
68108;SDS011;54893;49.864;19.084;2022-07-29T04:31:20;15.07;;;9.43;;
68108;SDS011;54893;49.864;19.084;2022-07-29T04:36:20;13.63;;;8.60;;
68108;SDS011;54893;49.864;19.084;2022-07-29T04:41:21;12.80;;;8.27;;
68108;SDS011;54893;49.864;19.084;2022-07-29T04:46:21;13.67;;;8.63;;
68108;SDS011;54893;49.864;19.084;2022-07-29T04:51:22;15.03;;;8.83;;
68108;SDS011;54893;49.864;19.084;2022-07-29T04:56:22;14.10;;;8.07;;
68108;SDS011;54893;49.864;19.084;2022-07-29T05:01:23;14.20;;;8.40;;
68108;SDS011;54893;49.864;19.084;2022-07-29T05:06:23;12.67;;;7.80;;
68108;SDS011;54893;49.864;19.084;2022-07-29T05:11:24;12.23;;;8.10;;
68108;SDS011;54893;49.864;19.084;2022-07-29T05:16:24;11.27;;;7.80;;
68108;SDS011;54893;49.864;19.084;2022-07-29T05:21:24;12.27;;;8.00;;
68108;SDS011;54893;49.864;19.084;2022-07-29T05:26:25;12.10;;;7.47;;
68108;SDS011;54893;49.864;19.084;2022-07-29T05:31:25;12.07;;;7.70;;
68108;SDS011;54893;49.864;19.084;2022-07-29T05:36:25;12.00;;;7.40;;
68108;SDS011;54893;49.864;19.084;2022-07-29T05:41:26;11.73;;;7.37;;
68108;SDS011;54893;49.864;19.084;2022-07-29T05:46:26;13.77;;;7.43;;
68108;SDS011;54893;49.864;19.084;2022-07-29T05:51:26;10.93;;;6.90;;
68108;SDS011;54893;49.864;19.084;2022-07-29T05:56:27;10.87;;;7.50;;
68108;SDS011;54893;49.864;19.084;2022-07-29T06:01:27;32.23;;;7.97;;
68108;SDS011;54893;49.864;19.084;2022-07-29T06:06:27;11.57;;;6.47;;
68108;SDS011;54893;49.864;19.084;2022-07-29T06:11:28;10.27;;;6.63;;
68108;SDS011;54893;49.864;19.084;2022-07-29T06:16:28;12.80;;;6.90;;
68108;SDS011;54893;49.864;19.084;2022-07-29T06:21:29;9.02;;;6.50;;
68108;SDS011;54893;49.864;19.084;2022-07-29T06:26:29;13.00;;;6.27;;
68108;SDS011;54893;49.864;19.084;2022-07-29T06:31:29;9.43;;;6.43;;
68108;SDS011;54893;49.864;19.084;2022-07-29T06:36:30;11.20;;;6.43;;
68108;SDS011;54893;49.864;19.084;2022-07-29T06:41:30;13.63;;;6.57;;
68108;SDS011;54893;49.864;19.084;2022-07-29T06:46:31;9.70;;;6.40;;
68108;SDS011;54893;49.864;19.084;2022-07-29T06:51:31;11.30;;;6.27;;
68108;SDS011;54893;49.864;19.084;2022-07-29T06:56:32;13.97;;;6.23;;
68108;SDS011;54893;49.864;19.084;2022-07-29T07:01:35;12.23;;;6.63;;
68108;SDS011;54893;49.864;19.084;2022-07-29T07:06:37;10.02;;;6.38;;
68108;SDS011;54893;49.864;19.084;2022-07-29T07:11:37;11.00;;;6.30;;
68108;SDS011;54893;49.864;19.084;2022-07-29T07:16:38;8.68;;;6.28;;
68108;SDS011;54893;49.864;19.084;2022-07-29T07:21:38;9.03;;;6.07;;
68108;SDS011;54893;49.864;19.084;2022-07-29T07:26:38;8.30;;;6.00;;
68108;SDS011;54893;49.864;19.084;2022-07-29T07:31:39;8.90;;;6.10;;
68108;SDS011;54893;49.864;19.084;2022-07-29T07:36:40;9.53;;;6.10;;
68108;SDS011;54893;49.864;19.084;2022-07-29T07:41:40;9.30;;;6.27;;
68108;SDS011;54893;49.864;19.084;2022-07-29T07:46:41;26.47;;;6.87;;
68108;SDS011;54893;49.864;19.084;2022-07-29T07:51:41;7.70;;;5.90;;
68108;SDS011;54893;49.864;19.084;2022-07-29T07:56:41;10.20;;;6.67;;
68108;SDS011;54893;49.864;19.084;2022-07-29T08:01:42;10.40;;;6.13;;
68108;SDS011;54893;49.864;19.084;2022-07-29T08:06:43;9.83;;;6.30;;
68108;SDS011;54893;49.864;19.084;2022-07-29T08:11:43;11.20;;;6.47;;
68108;SDS011;54893;49.864;19.084;2022-07-29T08:16:43;9.60;;;6.57;;
68108;SDS011;54893;49.864;19.084;2022-07-29T08:21:44;10.27;;;6.27;;
68108;SDS011;54893;49.864;19.084;2022-07-29T08:26:44;12.15;;;6.60;;
68108;SDS011;54893;49.864;19.084;2022-07-29T08:31:45;16.20;;;6.83;;
68108;SDS011;54893;49.864;19.084;2022-07-29T08:36:46;11.47;;;6.63;;
68108;SDS011;54893;49.864;19.084;2022-07-29T08:41:46;7.83;;;6.07;;
68108;SDS011;54893;49.864;19.084;2022-07-29T08:46:47;10.10;;;6.38;;
68108;SDS011;54893;49.864;19.084;2022-07-29T08:51:49;9.50;;;6.30;;
68108;SDS011;54893;49.864;19.084;2022-07-29T08:56:50;11.18;;;6.38;;
68108;SDS011;54893;49.864;19.084;2022-07-29T09:01:51;10.03;;;6.50;;
68108;SDS011;54893;49.864;19.084;2022-07-29T09:06:53;9.25;;;6.53;;
68108;SDS011;54893;49.864;19.084;2022-07-29T09:11:57;7.97;;;5.90;;
68108;SDS011;54893;49.864;19.084;2022-07-29T09:16:58;8.23;;;6.03;;
68108;SDS011;54893;49.864;19.084;2022-07-29T09:22:05;9.25;;;5.85;;
68108;SDS011;54893;49.864;19.084;2022-07-29T09:27:10;9.57;;;6.03;;
68108;SDS011;54893;49.864;19.084;2022-07-29T09:32:16;8.75;;;6.38;;
68108;SDS011;54893;49.864;19.084;2022-07-29T09:37:29;10.47;;;6.33;;
68108;SDS011;54893;49.864;19.084;2022-07-29T09:42:29;9.13;;;6.13;;
68108;SDS011;54893;49.864;19.084;2022-07-29T09:47:42;8.50;;;6.00;;
68108;SDS011;54893;49.864;19.084;2022-07-29T09:52:49;8.98;;;5.88;;
68108;SDS011;54893;49.864;19.084;2022-07-29T09:57:51;9.03;;;6.03;;
68108;SDS011;54893;49.864;19.084;2022-07-29T10:02:55;9.27;;;6.28;;
68108;SDS011;54893;49.864;19.084;2022-07-29T10:08:01;11.50;;;6.60;;
68108;SDS011;54893;49.864;19.084;2022-07-29T10:13:06;11.82;;;7.00;;
68108;SDS011;54893;49.864;19.084;2022-07-29T10:18:14;10.17;;;6.43;;
68108;SDS011;54893;49.864;19.084;2022-07-29T10:23:17;15.43;;;6.50;;
68108;SDS011;54893;49.864;19.084;2022-07-29T10:28:17;9.37;;;6.13;;
68108;SDS011;54893;49.864;19.084;2022-07-29T10:49:10;10.10;;;6.65;;
68108;SDS011;54893;49.864;19.084;2022-07-29T10:54:15;8.10;;;6.30;;
68108;SDS011;54893;49.864;19.084;2022-07-29T10:59:22;10.15;;;6.72;;
68108;SDS011;54893;49.864;19.084;2022-07-29T11:09:43;14.10;;;6.67;;
68108;SDS011;54893;49.864;19.084;2022-07-29T11:19:51;9.17;;;6.10;;
68108;SDS011;54893;49.864;19.084;2022-07-29T11:25:12;10.67;;;6.90;;
68108;SDS011;54893;49.864;19.084;2022-07-29T11:30:14;9.38;;;6.85;;
68108;SDS011;54893;49.864;19.084;2022-07-29T11:35:18;12.17;;;7.30;;
68108;SDS011;54893;49.864;19.084;2022-07-29T11:40:21;9.87;;;6.90;;
68108;SDS011;54893;49.864;19.084;2022-07-29T11:45:22;8.87;;;6.67;;
68108;SDS011;54893;49.864;19.084;2022-07-29T11:50:29;15.23;;;6.60;;
68108;SDS011;54893;49.864;19.084;2022-07-29T11:55:32;14.02;;;7.13;;
68108;SDS011;54893;49.864;19.084;2022-07-29T12:00:39;11.63;;;6.68;;
68108;SDS011;54893;49.864;19.084;2022-07-29T12:05:42;9.57;;;5.87;;
68108;SDS011;54893;49.864;19.084;2022-07-29T12:10:48;8.00;;;6.43;;
68108;SDS011;54893;49.864;19.084;2022-07-29T12:15:53;10.10;;;6.30;;
68108;SDS011;54893;49.864;19.084;2022-07-29T12:20:58;10.93;;;6.50;;
68108;SDS011;54893;49.864;19.084;2022-07-29T12:26:00;11.52;;;6.47;;
68108;SDS011;54893;49.864;19.084;2022-07-29T12:31:04;7.40;;;5.80;;
68108;SDS011;54893;49.864;19.084;2022-07-29T12:36:05;9.93;;;6.60;;
68108;SDS011;54893;49.864;19.084;2022-07-29T12:41:05;8.97;;;6.23;;
68108;SDS011;54893;49.864;19.084;2022-07-29T12:46:13;9.20;;;6.22;;
68108;SDS011;54893;49.864;19.084;2022-07-29T12:51:14;8.60;;;6.17;;
68108;SDS011;54893;49.864;19.084;2022-07-29T12:56:16;8.18;;;6.25;;
68108;SDS011;54893;49.864;19.084;2022-07-29T13:01:17;9.33;;;5.97;;
68108;SDS011;54893;49.864;19.084;2022-07-29T13:11:46;9.23;;;6.07;;
68108;SDS011;54893;49.864;19.084;2022-07-29T13:22:10;11.68;;;6.30;;
68108;SDS011;54893;49.864;19.084;2022-07-29T13:27:19;8.70;;;5.90;;
68108;SDS011;54893;49.864;19.084;2022-07-29T13:32:22;10.45;;;6.13;;
68108;SDS011;54893;49.864;19.084;2022-07-29T13:37:27;8.63;;;5.97;;
68108;SDS011;54893;49.864;19.084;2022-07-29T13:42:29;8.47;;;6.17;;
68108;SDS011;54893;49.864;19.084;2022-07-29T13:47:30;13.13;;;6.50;;
68108;SDS011;54893;49.864;19.084;2022-07-29T13:52:30;8.30;;;6.00;;
68108;SDS011;54893;49.864;19.084;2022-07-29T13:57:31;8.77;;;5.47;;
68108;SDS011;54893;49.864;19.084;2022-07-29T14:02:31;7.70;;;5.57;;
68108;SDS011;54893;49.864;19.084;2022-07-29T14:07:33;9.80;;;5.85;;
68108;SDS011;54893;49.864;19.084;2022-07-29T14:12:33;10.63;;;5.90;;
68108;SDS011;54893;49.864;19.084;2022-07-29T14:17:34;7.63;;;5.27;;
68108;SDS011;54893;49.864;19.084;2022-07-29T14:22:34;8.23;;;5.30;;
68108;SDS011;54893;49.864;19.084;2022-07-29T14:27:35;8.07;;;5.77;;
68108;SDS011;54893;49.864;19.084;2022-07-29T14:32:35;11.07;;;5.83;;
68108;SDS011;54893;49.864;19.084;2022-07-29T14:37:35;11.33;;;5.60;;
68108;SDS011;54893;49.864;19.084;2022-07-29T14:42:36;8.80;;;5.90;;
68108;SDS011;54893;49.864;19.084;2022-07-29T14:47:38;9.73;;;5.65;;
68108;SDS011;54893;49.864;19.084;2022-07-29T14:52:38;9.13;;;5.10;;
68108;SDS011;54893;49.864;19.084;2022-07-29T14:57:39;7.00;;;4.47;;
68108;SDS011;54893;49.864;19.084;2022-07-29T15:02:40;7.43;;;4.07;;
68108;SDS011;54893;49.864;19.084;2022-07-29T15:07:40;5.27;;;3.57;;
68108;SDS011;54893;49.864;19.084;2022-07-29T15:12:40;6.23;;;3.90;;
68108;SDS011;54893;49.864;19.084;2022-07-29T15:17:41;6.77;;;4.00;;
68108;SDS011;54893;49.864;19.084;2022-07-29T15:22:42;7.63;;;4.60;;
68108;SDS011;54893;49.864;19.084;2022-07-29T15:27:44;6.67;;;4.40;;
68108;SDS011;54893;49.864;19.084;2022-07-29T15:32:44;7.93;;;4.73;;
68108;SDS011;54893;49.864;19.084;2022-07-29T15:37:45;8.23;;;6.00;;
68108;SDS011;54893;49.864;19.084;2022-07-29T15:42:45;9.00;;;5.83;;
68108;SDS011;54893;49.864;19.084;2022-07-29T15:47:46;9.43;;;5.73;;
68108;SDS011;54893;49.864;19.084;2022-07-29T15:52:46;8.07;;;6.03;;
68108;SDS011;54893;49.864;19.084;2022-07-29T15:57:46;10.30;;;6.30;;
68108;SDS011;54893;49.864;19.084;2022-07-29T16:02:47;12.50;;;7.13;;
68108;SDS011;54893;49.864;19.084;2022-07-29T16:07:47;10.80;;;6.60;;
68108;SDS011;54893;49.864;19.084;2022-07-29T16:12:47;13.83;;;7.67;;
68108;SDS011;54893;49.864;19.084;2022-07-29T16:17:48;10.57;;;6.93;;
68108;SDS011;54893;49.864;19.084;2022-07-29T16:22:49;14.57;;;8.37;;
68108;SDS011;54893;49.864;19.084;2022-07-29T16:27:49;32.03;;;16.63;;
68108;SDS011;54893;49.864;19.084;2022-07-29T16:32:50;14.60;;;9.83;;
68108;SDS011;54893;49.864;19.084;2022-07-29T16:37:50;10.20;;;6.97;;
68108;SDS011;54893;49.864;19.084;2022-07-29T16:42:50;9.93;;;6.70;;
68108;SDS011;54893;49.864;19.084;2022-07-29T16:47:52;10.63;;;6.80;;
68108;SDS011;54893;49.864;19.084;2022-07-29T16:52:53;10.90;;;6.57;;
68108;SDS011;54893;49.864;19.084;2022-07-29T16:57:54;8.57;;;5.97;;
68108;SDS011;54893;49.864;19.084;2022-07-29T17:02:54;10.40;;;6.57;;
68108;SDS011;54893;49.864;19.084;2022-07-29T17:07:55;8.87;;;5.90;;
68108;SDS011;54893;49.864;19.084;2022-07-29T17:12:57;8.50;;;6.13;;
68108;SDS011;54893;49.864;19.084;2022-07-29T17:17:57;8.30;;;6.00;;
68108;SDS011;54893;49.864;19.084;2022-07-29T17:22:59;7.67;;;5.60;;
68108;SDS011;54893;49.864;19.084;2022-07-29T17:28:00;8.90;;;5.63;;
68108;SDS011;54893;49.864;19.084;2022-07-29T17:33:00;9.20;;;6.40;;
68108;SDS011;54893;49.864;19.084;2022-07-29T17:38:00;10.10;;;7.00;;
68108;SDS011;54893;49.864;19.084;2022-07-29T17:43:01;10.63;;;6.90;;
68108;SDS011;54893;49.864;19.084;2022-07-29T17:48:03;9.57;;;6.55;;
68108;SDS011;54893;49.864;19.084;2022-07-29T17:53:04;9.70;;;7.30;;
68108;SDS011;54893;49.864;19.084;2022-07-29T17:58:05;11.50;;;7.73;;
68108;SDS011;54893;49.864;19.084;2022-07-29T18:03:08;11.40;;;7.53;;
68108;SDS011;54893;49.864;19.084;2022-07-29T18:08:08;12.13;;;7.28;;
68108;SDS011;54893;49.864;19.084;2022-07-29T18:13:09;12.77;;;7.30;;
68108;SDS011;54893;49.864;19.084;2022-07-29T18:18:13;11.48;;;7.38;;
68108;SDS011;54893;49.864;19.084;2022-07-29T18:23:14;12.10;;;7.37;;
68108;SDS011;54893;49.864;19.084;2022-07-29T18:28:15;13.55;;;8.07;;
68108;SDS011;54893;49.864;19.084;2022-07-29T18:33:16;9.70;;;6.67;;
68108;SDS011;54893;49.864;19.084;2022-07-29T18:38:18;9.38;;;5.88;;
68108;SDS011;54893;49.864;19.084;2022-07-29T18:43:20;11.10;;;7.17;;
68108;SDS011;54893;49.864;19.084;2022-07-29T18:48:21;12.10;;;7.20;;
68108;SDS011;54893;49.864;19.084;2022-07-29T18:53:21;10.13;;;7.17;;
68108;SDS011;54893;49.864;19.084;2022-07-29T18:58:21;12.13;;;8.10;;
68108;SDS011;54893;49.864;19.084;2022-07-29T19:03:22;13.10;;;8.30;;
68108;SDS011;54893;49.864;19.084;2022-07-29T19:08:22;15.87;;;8.60;;
68108;SDS011;54893;49.864;19.084;2022-07-29T19:13:24;11.73;;;7.43;;
68108;SDS011;54893;49.864;19.084;2022-07-29T19:18:24;12.60;;;8.20;;
68108;SDS011;54893;49.864;19.084;2022-07-29T19:23:25;11.27;;;7.37;;
68108;SDS011;54893;49.864;19.084;2022-07-29T19:28:25;11.57;;;7.80;;
68108;SDS011;54893;49.864;19.084;2022-07-29T19:33:25;12.27;;;8.37;;
68108;SDS011;54893;49.864;19.084;2022-07-29T19:38:26;13.17;;;8.07;;
68108;SDS011;54893;49.864;19.084;2022-07-29T19:43:26;12.50;;;7.93;;
68108;SDS011;54893;49.864;19.084;2022-07-29T19:48:26;13.87;;;8.30;;
68108;SDS011;54893;49.864;19.084;2022-07-29T19:53:27;12.97;;;8.30;;
68108;SDS011;54893;49.864;19.084;2022-07-29T19:58:27;13.47;;;8.37;;
68108;SDS011;54893;49.864;19.084;2022-07-29T20:03:28;10.47;;;6.33;;
68108;SDS011;54893;49.864;19.084;2022-07-29T20:08:28;11.27;;;7.30;;
68108;SDS011;54893;49.864;19.084;2022-07-29T20:13:29;9.37;;;6.27;;
68108;SDS011;54893;49.864;19.084;2022-07-29T20:18:31;9.10;;;6.25;;
68108;SDS011;54893;49.864;19.084;2022-07-29T20:23:32;11.73;;;7.40;;
68108;SDS011;54893;49.864;19.084;2022-07-29T20:28:32;10.40;;;7.20;;
68108;SDS011;54893;49.864;19.084;2022-07-29T20:33:33;11.60;;;6.93;;
68108;SDS011;54893;49.864;19.084;2022-07-29T20:38:33;11.87;;;7.03;;
68108;SDS011;54893;49.864;19.084;2022-07-29T20:43:33;11.27;;;7.53;;
68108;SDS011;54893;49.864;19.084;2022-07-29T20:48:34;11.33;;;7.10;;
68108;SDS011;54893;49.864;19.084;2022-07-29T20:53:36;12.70;;;7.77;;
68108;SDS011;54893;49.864;19.084;2022-07-29T20:58:39;11.40;;;7.35;;
68108;SDS011;54893;49.864;19.084;2022-07-29T21:03:41;14.13;;;8.00;;
68108;SDS011;54893;49.864;19.084;2022-07-29T21:08:41;12.82;;;7.95;;
68108;SDS011;54893;49.864;19.084;2022-07-29T21:13:41;17.43;;;10.03;;
68108;SDS011;54893;49.864;19.084;2022-07-29T21:18:45;12.80;;;8.63;;
68108;SDS011;54893;49.864;19.084;2022-07-29T21:23:46;13.35;;;8.95;;
68108;SDS011;54893;49.864;19.084;2022-07-29T21:28:46;13.90;;;9.37;;
68108;SDS011;54893;49.864;19.084;2022-07-29T21:33:47;15.13;;;9.13;;
68108;SDS011;54893;49.864;19.084;2022-07-29T21:38:47;13.57;;;9.03;;
68108;SDS011;54893;49.864;19.084;2022-07-29T21:43:47;14.67;;;8.60;;
68108;SDS011;54893;49.864;19.084;2022-07-29T21:48:48;12.80;;;7.97;;
68108;SDS011;54893;49.864;19.084;2022-07-29T21:53:48;13.30;;;8.77;;
68108;SDS011;54893;49.864;19.084;2022-07-29T21:58:49;16.33;;;10.00;;
68108;SDS011;54893;49.864;19.084;2022-07-29T22:03:49;16.47;;;10.37;;
68108;SDS011;54893;49.864;19.084;2022-07-29T22:08:50;21.00;;;10.23;;
68108;SDS011;54893;49.864;19.084;2022-07-29T22:13:50;15.77;;;10.38;;
68108;SDS011;54893;49.864;19.084;2022-07-29T22:18:51;14.60;;;9.82;;
68108;SDS011;54893;49.864;19.084;2022-07-29T22:23:51;14.43;;;9.17;;
68108;SDS011;54893;49.864;19.084;2022-07-29T22:28:51;15.73;;;9.20;;
68108;SDS011;54893;49.864;19.084;2022-07-29T22:33:52;15.73;;;9.17;;
68108;SDS011;54893;49.864;19.084;2022-07-29T22:38:52;13.63;;;8.37;;
68108;SDS011;54893;49.864;19.084;2022-07-29T22:43:52;14.43;;;8.70;;
68108;SDS011;54893;49.864;19.084;2022-07-29T22:48:53;15.03;;;7.77;;
68108;SDS011;54893;49.864;19.084;2022-07-29T22:53:53;10.23;;;7.03;;
68108;SDS011;54893;49.864;19.084;2022-07-29T22:58:54;8.93;;;6.20;;
68108;SDS011;54893;49.864;19.084;2022-07-29T23:03:54;10.10;;;6.63;;
68108;SDS011;54893;49.864;19.084;2022-07-29T23:08:54;13.48;;;8.30;;
68108;SDS011;54893;49.864;19.084;2022-07-29T23:13:55;19.37;;;10.03;;
68108;SDS011;54893;49.864;19.084;2022-07-29T23:18:55;16.52;;;10.25;;
68108;SDS011;54893;49.864;19.084;2022-07-29T23:23:55;17.03;;;10.50;;
68108;SDS011;54893;49.864;19.084;2022-07-29T23:28:56;14.75;;;9.73;;
68108;SDS011;54893;49.864;19.084;2022-07-29T23:33:56;13.85;;;9.55;;
68108;SDS011;54893;49.864;19.084;2022-07-29T23:38:57;16.98;;;10.27;;
68108;SDS011;54893;49.864;19.084;2022-07-29T23:43:57;16.83;;;10.32;;
68108;SDS011;54893;49.864;19.084;2022-07-29T23:48:57;17.08;;;11.15;;
68108;SDS011;54893;49.864;19.084;2022-07-29T23:53:58;19.00;;;12.15;;
68108;SDS011;54893;49.864;19.084;2022-07-29T23:58:58;18.07;;;10.57;;
